sensor_id;sensor_type;location;lat;lon;timestamp;pressure;altitude;pressure_sealevel;temperature;humidity
67803;BME280;54601;51.378;-1.342;2022-10-16T00:00:54;99191.25;;;19.30;36.70
67803;BME280;54601;51.378;-1.342;2022-10-16T00:03:19;99191.54;;;19.47;36.72
67803;BME280;54601;51.378;-1.342;2022-10-16T00:05:44;99191.29;;;19.54;36.95
67803;BME280;54601;51.378;-1.342;2022-10-16T00:08:11;99194.86;;;19.35;36.89
67803;BME280;54601;51.378;-1.342;2022-10-16T00:10:35;99194.93;;;19.30;36.89
67803;BME280;54601;51.378;-1.342;2022-10-16T00:13:00;99194.52;;;19.21;37.03
67803;BME280;54601;51.378;-1.342;2022-10-16T00:15:25;99185.69;;;19.23;36.95
67803;BME280;54601;51.378;-1.342;2022-10-16T00:17:50;99194.30;;;19.21;36.99
67803;BME280;54601;51.378;-1.342;2022-10-16T00:20:15;99194.94;;;19.35;36.81
67803;BME280;54601;51.378;-1.342;2022-10-16T00:22:40;99199.27;;;19.40;36.70
67803;BME280;54601;51.378;-1.342;2022-10-16T00:25:05;99204.49;;;19.48;36.50
67803;BME280;54601;51.378;-1.342;2022-10-16T00:27:30;99206.42;;;19.19;36.97
67803;BME280;54601;51.378;-1.342;2022-10-16T00:29:55;99210.24;;;19.27;36.83
67803;BME280;54601;51.378;-1.342;2022-10-16T00:32:20;99220.38;;;19.23;36.93
67803;BME280;54601;51.378;-1.342;2022-10-16T00:34:45;99213.52;;;19.02;36.87
67803;BME280;54601;51.378;-1.342;2022-10-16T00:37:10;99209.92;;;18.87;37.04
67803;BME280;54601;51.378;-1.342;2022-10-16T00:39:35;99206.19;;;19.12;37.02
67803;BME280;54601;51.378;-1.342;2022-10-16T00:42:00;99212.43;;;19.20;36.89
67803;BME280;54601;51.378;-1.342;2022-10-16T00:46:51;99216.84;;;19.26;36.78
67803;BME280;54601;51.378;-1.342;2022-10-16T00:49:18;99210.72;;;19.06;37.02
67803;BME280;54601;51.378;-1.342;2022-10-16T00:51:43;99206.99;;;19.10;36.98
67803;BME280;54601;51.378;-1.342;2022-10-16T00:54:09;99204.56;;;19.15;36.85
67803;BME280;54601;51.378;-1.342;2022-10-16T00:56:32;99203.62;;;19.06;37.01
67803;BME280;54601;51.378;-1.342;2022-10-16T00:58:56;99204.71;;;19.10;36.91
67803;BME280;54601;51.378;-1.342;2022-10-16T01:01:21;99201.66;;;19.07;36.91
67803;BME280;54601;51.378;-1.342;2022-10-16T01:03:51;99206.17;;;18.99;37.04
67803;BME280;54601;51.378;-1.342;2022-10-16T01:06:21;99210.62;;;19.03;36.96
67803;BME280;54601;51.378;-1.342;2022-10-16T01:08:43;99211.89;;;19.03;36.91
67803;BME280;54601;51.378;-1.342;2022-10-16T01:11:05;99207.92;;;19.26;36.62
67803;BME280;54601;51.378;-1.342;2022-10-16T01:13:31;99208.52;;;19.16;36.76
67803;BME280;54601;51.378;-1.342;2022-10-16T01:15:56;99208.51;;;19.02;36.93
67803;BME280;54601;51.378;-1.342;2022-10-16T01:18:20;99213.26;;;19.00;36.93
67803;BME280;54601;51.378;-1.342;2022-10-16T01:20:45;99220.64;;;19.09;36.76
67803;BME280;54601;51.378;-1.342;2022-10-16T01:23:15;99216.42;;;19.09;36.81
67803;BME280;54601;51.378;-1.342;2022-10-16T01:25:43;99217.69;;;19.15;36.72
67803;BME280;54601;51.378;-1.342;2022-10-16T01:27:59;99219.43;;;19.08;36.73
67803;BME280;54601;51.378;-1.342;2022-10-16T01:30:24;99222.30;;;19.06;36.80
67803;BME280;54601;51.378;-1.342;2022-10-16T01:32:52;99226.28;;;19.19;36.55
67803;BME280;54601;51.378;-1.342;2022-10-16T01:35:17;99225.81;;;19.17;36.59
67803;BME280;54601;51.378;-1.342;2022-10-16T01:37:43;99227.85;;;18.97;36.80
67803;BME280;54601;51.378;-1.342;2022-10-16T01:40:09;99230.75;;;19.25;36.75
67803;BME280;54601;51.378;-1.342;2022-10-16T01:42:34;99229.70;;;18.83;36.94
67803;BME280;54601;51.378;-1.342;2022-10-16T01:44:56;99233.01;;;19.06;36.68
67803;BME280;54601;51.378;-1.342;2022-10-16T01:47:23;99231.90;;;19.21;36.75
67803;BME280;54601;51.378;-1.342;2022-10-16T01:49:45;99236.97;;;19.10;36.57
67803;BME280;54601;51.378;-1.342;2022-10-16T01:52:13;99243.49;;;18.95;36.73
67803;BME280;54601;51.378;-1.342;2022-10-16T01:54:37;99242.14;;;18.85;36.79
67803;BME280;54601;51.378;-1.342;2022-10-16T01:57:01;99248.70;;;18.99;36.63
67803;BME280;54601;51.378;-1.342;2022-10-16T01:59:29;99247.97;;;18.90;36.68
67803;BME280;54601;51.378;-1.342;2022-10-16T02:01:54;99252.11;;;18.87;36.74
67803;BME280;54601;51.378;-1.342;2022-10-16T02:04:20;99258.24;;;18.88;36.65
67803;BME280;54601;51.378;-1.342;2022-10-16T02:06:41;99254.43;;;18.77;36.75
67803;BME280;54601;51.378;-1.342;2022-10-16T02:09:07;99255.07;;;18.83;36.65
67803;BME280;54601;51.378;-1.342;2022-10-16T02:11:33;99260.91;;;18.77;36.78
67803;BME280;54601;51.378;-1.342;2022-10-16T02:14:01;99258.96;;;18.86;36.59
67803;BME280;54601;51.378;-1.342;2022-10-16T02:16:34;99261.01;;;18.86;36.46
67803;BME280;54601;51.378;-1.342;2022-10-16T02:18:51;99264.75;;;18.88;36.44
67803;BME280;54601;51.378;-1.342;2022-10-16T02:21:19;99269.90;;;18.88;36.72
67803;BME280;54601;51.378;-1.342;2022-10-16T02:23:50;99278.02;;;18.59;36.76
67803;BME280;54601;51.378;-1.342;2022-10-16T02:26:09;99285.81;;;18.79;36.55
67803;BME280;54601;51.378;-1.342;2022-10-16T02:28:38;99289.39;;;19.13;36.46
67803;BME280;54601;51.378;-1.342;2022-10-16T02:31:01;99285.18;;;18.87;36.42
67803;BME280;54601;51.378;-1.342;2022-10-16T02:33:25;99289.22;;;19.05;36.50
67803;BME280;54601;51.378;-1.342;2022-10-16T02:35:56;99299.63;;;19.13;36.43
67803;BME280;54601;51.378;-1.342;2022-10-16T02:38:16;99300.61;;;19.12;36.44
67803;BME280;54601;51.378;-1.342;2022-10-16T02:40:40;99296.69;;;18.80;36.41
67803;BME280;54601;51.378;-1.342;2022-10-16T02:43:06;99301.48;;;18.79;36.37
67803;BME280;54601;51.378;-1.342;2022-10-16T02:45:30;99301.04;;;18.87;36.28
67803;BME280;54601;51.378;-1.342;2022-10-16T02:47:55;99308.17;;;18.92;36.20
67803;BME280;54601;51.378;-1.342;2022-10-16T02:50:20;99316.00;;;18.87;36.59
67803;BME280;54601;51.378;-1.342;2022-10-16T02:52:45;99317.72;;;18.80;36.37
67803;BME280;54601;51.378;-1.342;2022-10-16T02:55:10;99317.86;;;19.15;36.49
67803;BME280;54601;51.378;-1.342;2022-10-16T02:57:35;99322.52;;;18.67;36.45
67803;BME280;54601;51.378;-1.342;2022-10-16T03:00:00;99325.40;;;18.84;36.24
67803;BME280;54601;51.378;-1.342;2022-10-16T03:02:27;99324.08;;;18.64;36.38
67803;BME280;54601;51.378;-1.342;2022-10-16T03:04:51;99330.25;;;18.70;36.30
67803;BME280;54601;51.378;-1.342;2022-10-16T03:07:16;99323.23;;;18.87;36.35
67803;BME280;54601;51.378;-1.342;2022-10-16T03:09:41;99319.93;;;18.60;36.44
67803;BME280;54601;51.378;-1.342;2022-10-16T03:12:06;99322.49;;;18.64;36.34
67803;BME280;54601;51.378;-1.342;2022-10-16T03:14:31;99323.31;;;18.93;36.28
67803;BME280;54601;51.378;-1.342;2022-10-16T03:16:56;99328.08;;;18.63;36.35
67803;BME280;54601;51.378;-1.342;2022-10-16T03:19:21;99331.12;;;18.69;36.24
67803;BME280;54601;51.378;-1.342;2022-10-16T03:21:46;99331.83;;;18.92;36.29
67803;BME280;54601;51.378;-1.342;2022-10-16T03:24:11;99335.60;;;18.59;36.36
67803;BME280;54601;51.378;-1.342;2022-10-16T03:26:36;99342.38;;;18.95;36.29
67803;BME280;54601;51.378;-1.342;2022-10-16T03:29:02;99345.72;;;18.96;36.24
67803;BME280;54601;51.378;-1.342;2022-10-16T03:31:26;99342.57;;;18.63;36.24
67803;BME280;54601;51.378;-1.342;2022-10-16T03:33:52;99348.26;;;18.62;36.26
67803;BME280;54601;51.378;-1.342;2022-10-16T03:36:17;99352.63;;;18.61;36.32
67803;BME280;54601;51.378;-1.342;2022-10-16T03:38:42;99349.57;;;18.78;36.03
67803;BME280;54601;51.378;-1.342;2022-10-16T03:41:07;99351.02;;;18.67;36.17
67803;BME280;54601;51.378;-1.342;2022-10-16T03:43:33;99355.98;;;18.67;36.16
67803;BME280;54601;51.378;-1.342;2022-10-16T03:45:57;99364.36;;;18.67;36.12
67803;BME280;54601;51.378;-1.342;2022-10-16T03:48:22;99370.42;;;18.97;36.06
67803;BME280;54601;51.378;-1.342;2022-10-16T03:50:47;99369.57;;;19.05;35.99
67803;BME280;54601;51.378;-1.342;2022-10-16T03:53:12;99378.26;;;18.87;36.22
67803;BME280;54601;51.378;-1.342;2022-10-16T03:55:37;99380.93;;;19.05;35.99
67803;BME280;54601;51.378;-1.342;2022-10-16T03:58:03;99385.83;;;18.63;36.12
67803;BME280;54601;51.378;-1.342;2022-10-16T04:00:29;99385.51;;;18.62;36.09
67803;BME280;54601;51.378;-1.342;2022-10-16T04:02:53;99387.54;;;18.89;36.08
67803;BME280;54601;51.378;-1.342;2022-10-16T04:05:18;99390.48;;;18.87;36.07
67803;BME280;54601;51.378;-1.342;2022-10-16T04:07:43;99397.80;;;18.63;36.11
67803;BME280;54601;51.378;-1.342;2022-10-16T04:10:09;99403.72;;;18.93;36.02
67803;BME280;54601;51.378;-1.342;2022-10-16T04:12:33;99410.19;;;18.93;36.02
67803;BME280;54601;51.378;-1.342;2022-10-16T04:14:58;99414.03;;;18.60;36.10
67803;BME280;54601;51.378;-1.342;2022-10-16T04:17:24;99418.34;;;18.61;36.08
67803;BME280;54601;51.378;-1.342;2022-10-16T04:19:49;99423.51;;;18.99;35.84
67803;BME280;54601;51.378;-1.342;2022-10-16T04:22:14;99429.51;;;18.92;35.97
67803;BME280;54601;51.378;-1.342;2022-10-16T04:24:39;99431.21;;;18.87;36.00
67803;BME280;54601;51.378;-1.342;2022-10-16T04:27:04;99432.71;;;18.80;36.05
67803;BME280;54601;51.378;-1.342;2022-10-16T04:29:29;99440.82;;;18.52;36.05
67803;BME280;54601;51.378;-1.342;2022-10-16T04:31:54;99446.35;;;19.04;36.03
67803;BME280;54601;51.378;-1.342;2022-10-16T04:34:19;99457.32;;;19.08;35.92
67803;BME280;54601;51.378;-1.342;2022-10-16T04:36:46;99460.84;;;19.08;35.96
67803;BME280;54601;51.378;-1.342;2022-10-16T04:39:09;99465.55;;;18.87;35.87
67803;BME280;54601;51.378;-1.342;2022-10-16T04:41:34;99463.97;;;18.98;36.01
67803;BME280;54601;51.378;-1.342;2022-10-16T04:44:00;99466.66;;;18.52;36.15
67803;BME280;54601;51.378;-1.342;2022-10-16T04:46:25;99475.50;;;18.39;36.03
67803;BME280;54601;51.378;-1.342;2022-10-16T04:48:50;99475.06;;;18.71;35.92
67803;BME280;54601;51.378;-1.342;2022-10-16T04:51:15;99476.67;;;19.04;35.81
67803;BME280;54601;51.378;-1.342;2022-10-16T04:53:40;99478.66;;;18.90;35.93
67803;BME280;54601;51.378;-1.342;2022-10-16T04:56:06;99482.22;;;18.78;36.01
67803;BME280;54601;51.378;-1.342;2022-10-16T04:58:30;99487.52;;;18.60;35.99
67803;BME280;54601;51.378;-1.342;2022-10-16T05:00:55;99491.40;;;18.47;36.13
67803;BME280;54601;51.378;-1.342;2022-10-16T05:03:20;99498.76;;;18.65;35.90
67803;BME280;54601;51.378;-1.342;2022-10-16T05:05:46;99506.82;;;18.39;35.88
67803;BME280;54601;51.378;-1.342;2022-10-16T05:08:11;99513.36;;;18.48;35.75
67803;BME280;54601;51.378;-1.342;2022-10-16T05:10:36;99527.73;;;18.35;35.91
67803;BME280;54601;51.378;-1.342;2022-10-16T05:13:01;99530.99;;;18.91;35.77
67803;BME280;54601;51.378;-1.342;2022-10-16T05:15:26;99537.72;;;18.46;35.77
67803;BME280;54601;51.378;-1.342;2022-10-16T05:17:53;99537.12;;;18.45;35.72
67803;BME280;54601;51.378;-1.342;2022-10-16T05:20:16;99540.27;;;18.43;35.76
67803;BME280;54601;51.378;-1.342;2022-10-16T05:22:41;99545.38;;;18.55;35.88
67803;BME280;54601;51.378;-1.342;2022-10-16T05:25:07;99542.22;;;18.60;35.84
67803;BME280;54601;51.378;-1.342;2022-10-16T05:27:31;99545.17;;;18.92;35.71
67803;BME280;54601;51.378;-1.342;2022-10-16T05:29:56;99548.33;;;18.67;35.71
67803;BME280;54601;51.378;-1.342;2022-10-16T05:32:22;99551.29;;;18.52;35.86
67803;BME280;54601;51.378;-1.342;2022-10-16T05:34:47;99555.78;;;18.59;35.73
67803;BME280;54601;51.378;-1.342;2022-10-16T05:37:12;99557.00;;;18.82;35.78
67803;BME280;54601;51.378;-1.342;2022-10-16T05:39:37;99556.43;;;18.27;35.73
67803;BME280;54601;51.378;-1.342;2022-10-16T05:42:02;99561.74;;;18.53;35.76
67803;BME280;54601;51.378;-1.342;2022-10-16T05:44:27;99560.34;;;18.39;35.90
67803;BME280;54601;51.378;-1.342;2022-10-16T05:46:52;99565.12;;;18.34;35.58
67803;BME280;54601;51.378;-1.342;2022-10-16T05:49:17;99573.01;;;18.92;35.53
67803;BME280;54601;51.378;-1.342;2022-10-16T05:51:42;99579.32;;;18.51;35.51
67803;BME280;54601;51.378;-1.342;2022-10-16T05:54:08;99582.01;;;19.15;35.40
67803;BME280;54601;51.378;-1.342;2022-10-16T05:56:33;99582.77;;;18.75;35.51
67803;BME280;54601;51.378;-1.342;2022-10-16T05:58:58;99591.94;;;18.66;35.66
67803;BME280;54601;51.378;-1.342;2022-10-16T06:01:23;99593.57;;;18.93;35.82
67803;BME280;54601;51.378;-1.342;2022-10-16T06:03:49;99595.97;;;18.92;35.94
67803;BME280;54601;51.378;-1.342;2022-10-16T06:06:14;99600.00;;;18.94;36.00
67803;BME280;54601;51.378;-1.342;2022-10-16T06:08:39;99603.48;;;18.98;36.01
67803;BME280;54601;51.378;-1.342;2022-10-16T06:11:13;99603.25;;;18.70;36.05
67803;BME280;54601;51.378;-1.342;2022-10-16T06:13:28;99601.79;;;19.08;35.94
67803;BME280;54601;51.378;-1.342;2022-10-16T06:15:57;99597.15;;;19.18;35.77
67803;BME280;54601;51.378;-1.342;2022-10-16T06:18:19;99599.75;;;19.15;35.87
67803;BME280;54601;51.378;-1.342;2022-10-16T06:20:44;99602.66;;;19.30;35.95
67803;BME280;54601;51.378;-1.342;2022-10-16T06:23:09;99605.10;;;18.76;35.93
67803;BME280;54601;51.378;-1.342;2022-10-16T06:25:34;99606.95;;;19.13;35.84
67803;BME280;54601;51.378;-1.342;2022-10-16T06:27:59;99607.93;;;19.07;35.82
67803;BME280;54601;51.378;-1.342;2022-10-16T06:30:24;99610.19;;;19.27;35.87
67803;BME280;54601;51.378;-1.342;2022-10-16T06:32:49;99613.51;;;18.81;35.79
67803;BME280;54601;51.378;-1.342;2022-10-16T06:35:14;99614.75;;;18.77;35.84
67803;BME280;54601;51.378;-1.342;2022-10-16T06:37:40;99618.16;;;18.81;35.73
67803;BME280;54601;51.378;-1.342;2022-10-16T06:40:06;99626.19;;;19.03;35.79
67803;BME280;54601;51.378;-1.342;2022-10-16T06:42:30;99626.40;;;19.00;35.79
67803;BME280;54601;51.378;-1.342;2022-10-16T06:44:55;99626.25;;;18.79;35.67
67803;BME280;54601;51.378;-1.342;2022-10-16T06:47:20;99623.95;;;19.22;35.72
67803;BME280;54601;51.378;-1.342;2022-10-16T06:49:45;99629.94;;;18.98;35.73
67803;BME280;54601;51.378;-1.342;2022-10-16T06:52:10;99633.08;;;18.96;35.79
67803;BME280;54601;51.378;-1.342;2022-10-16T06:54:35;99638.15;;;18.74;35.79
67803;BME280;54601;51.378;-1.342;2022-10-16T06:57:01;99636.91;;;18.82;35.84
67803;BME280;54601;51.378;-1.342;2022-10-16T06:59:26;99638.52;;;19.13;35.80
67803;BME280;54601;51.378;-1.342;2022-10-16T07:01:51;99639.45;;;18.94;35.57
67803;BME280;54601;51.378;-1.342;2022-10-16T07:04:16;99642.94;;;18.97;35.64
67803;BME280;54601;51.378;-1.342;2022-10-16T07:06:41;99651.63;;;18.88;35.74
67803;BME280;54601;51.378;-1.342;2022-10-16T07:09:09;99660.48;;;19.12;35.77
67803;BME280;54601;51.378;-1.342;2022-10-16T07:11:31;99665.85;;;19.12;35.71
67803;BME280;54601;51.378;-1.342;2022-10-16T07:13:56;99672.54;;;18.82;35.74
67803;BME280;54601;51.378;-1.342;2022-10-16T07:16:23;99682.53;;;19.12;35.71
67803;BME280;54601;51.378;-1.342;2022-10-16T07:18:47;99684.70;;;19.16;35.65
67803;BME280;54601;51.378;-1.342;2022-10-16T07:21:13;99686.93;;;18.87;35.66
67803;BME280;54601;51.378;-1.342;2022-10-16T07:23:37;99691.94;;;18.87;35.65
67803;BME280;54601;51.378;-1.342;2022-10-16T07:26:02;99692.71;;;19.12;35.64
67803;BME280;54601;51.378;-1.342;2022-10-16T07:28:27;99693.76;;;19.12;35.61
67803;BME280;54601;51.378;-1.342;2022-10-16T07:30:52;99695.64;;;18.82;35.57
67803;BME280;54601;51.378;-1.342;2022-10-16T07:33:17;99702.84;;;18.85;35.59
67803;BME280;54601;51.378;-1.342;2022-10-16T07:35:48;99706.71;;;18.86;35.64
67803;BME280;54601;51.378;-1.342;2022-10-16T07:38:07;99709.48;;;18.89;35.66
67803;BME280;54601;51.378;-1.342;2022-10-16T07:40:33;99714.21;;;19.19;35.64
67803;BME280;54601;51.378;-1.342;2022-10-16T07:42:57;99717.04;;;18.96;35.66
67803;BME280;54601;51.378;-1.342;2022-10-16T07:45:23;99715.57;;;19.03;35.47
67803;BME280;54601;51.378;-1.342;2022-10-16T07:47:48;99714.93;;;19.06;35.48
67803;BME280;54601;51.378;-1.342;2022-10-16T07:50:13;99719.49;;;18.98;35.57
67803;BME280;54601;51.378;-1.342;2022-10-16T07:52:38;99722.55;;;19.23;35.66
67803;BME280;54601;51.378;-1.342;2022-10-16T07:55:04;99720.99;;;18.92;35.71
67803;BME280;54601;51.378;-1.342;2022-10-16T07:57:28;99726.42;;;18.93;35.65
67803;BME280;54601;51.378;-1.342;2022-10-16T07:59:53;99729.12;;;18.95;35.63
67803;BME280;54601;51.378;-1.342;2022-10-16T08:02:18;99735.01;;;18.98;35.60
67803;BME280;54601;51.378;-1.342;2022-10-16T08:04:43;99741.88;;;18.93;35.64
67803;BME280;54601;51.378;-1.342;2022-10-16T08:07:08;99750.68;;;18.93;35.67
67803;BME280;54601;51.378;-1.342;2022-10-16T08:09:34;99749.43;;;19.20;35.61
67803;BME280;54601;51.378;-1.342;2022-10-16T08:11:59;99750.95;;;18.91;35.66
67803;BME280;54601;51.378;-1.342;2022-10-16T08:14:24;99751.52;;;18.93;35.73
67803;BME280;54601;51.378;-1.342;2022-10-16T08:16:49;99754.19;;;19.26;35.95
67803;BME280;54601;51.378;-1.342;2022-10-16T08:19:14;99756.20;;;19.08;36.14
67803;BME280;54601;51.378;-1.342;2022-10-16T08:21:39;99760.36;;;19.17;36.12
67803;BME280;54601;51.378;-1.342;2022-10-16T08:24:04;99762.62;;;19.25;36.04
67803;BME280;54601;51.378;-1.342;2022-10-16T08:26:29;99761.33;;;19.23;36.10
67803;BME280;54601;51.378;-1.342;2022-10-16T08:28:55;99768.20;;;19.41;35.87
67803;BME280;54601;51.378;-1.342;2022-10-16T08:31:20;99772.09;;;19.46;35.79
67803;BME280;54601;51.378;-1.342;2022-10-16T08:33:45;99771.59;;;19.55;35.69
67803;BME280;54601;51.378;-1.342;2022-10-16T08:36:10;99774.22;;;19.64;35.52
67803;BME280;54601;51.378;-1.342;2022-10-16T08:38:35;99775.52;;;19.56;35.66
67803;BME280;54601;51.378;-1.342;2022-10-16T08:41:15;99776.67;;;19.66;35.60
67803;BME280;54601;51.378;-1.342;2022-10-16T08:43:35;99781.54;;;19.42;35.55
67803;BME280;54601;51.378;-1.342;2022-10-16T08:48:20;99789.27;;;19.47;35.73
67803;BME280;54601;51.378;-1.342;2022-10-16T08:50:40;99792.75;;;19.44;35.83
67803;BME280;54601;51.378;-1.342;2022-10-16T08:53:06;99798.86;;;19.41;35.83
67803;BME280;54601;51.378;-1.342;2022-10-16T08:55:34;99802.28;;;19.52;35.77
67803;BME280;54601;51.378;-1.342;2022-10-16T08:57:55;99806.67;;;19.48;35.82
67803;BME280;54601;51.378;-1.342;2022-10-16T09:00:21;99808.17;;;19.39;35.92
67803;BME280;54601;51.378;-1.342;2022-10-16T09:02:50;99807.73;;;19.37;35.98
67803;BME280;54601;51.378;-1.342;2022-10-16T09:05:21;99810.24;;;19.44;36.16
67803;BME280;54601;51.378;-1.342;2022-10-16T09:07:39;99812.30;;;19.67;35.98
67803;BME280;54601;51.378;-1.342;2022-10-16T09:10:12;99817.12;;;19.67;36.06
67803;BME280;54601;51.378;-1.342;2022-10-16T09:12:31;99822.82;;;19.84;36.13
67803;BME280;54601;51.378;-1.342;2022-10-16T09:14:59;99824.30;;;20.02;35.95
67803;BME280;54601;51.378;-1.342;2022-10-16T09:17:26;99830.22;;;20.09;35.99
67803;BME280;54601;51.378;-1.342;2022-10-16T09:19:46;99830.41;;;20.05;36.12
67803;BME280;54601;51.378;-1.342;2022-10-16T09:22:12;99830.33;;;20.18;36.10
67803;BME280;54601;51.378;-1.342;2022-10-16T09:24:31;99828.73;;;20.27;36.12
67803;BME280;54601;51.378;-1.342;2022-10-16T09:26:56;99826.90;;;20.24;36.08
67803;BME280;54601;51.378;-1.342;2022-10-16T09:29:21;99826.36;;;19.67;36.31
67803;BME280;54601;51.378;-1.342;2022-10-16T09:31:46;99825.38;;;20.05;36.21
67803;BME280;54601;51.378;-1.342;2022-10-16T09:34:17;99827.17;;;19.87;36.53
67803;BME280;54601;51.378;-1.342;2022-10-16T09:36:40;99830.11;;;20.36;36.18
67803;BME280;54601;51.378;-1.342;2022-10-16T09:39:04;99833.35;;;20.15;36.22
67803;BME280;54601;51.378;-1.342;2022-10-16T09:41:26;99831.55;;;20.27;36.37
67803;BME280;54601;51.378;-1.342;2022-10-16T09:43:54;99832.21;;;19.99;36.49
67803;BME280;54601;51.378;-1.342;2022-10-16T09:46:22;99833.15;;;20.12;36.35
67803;BME280;54601;51.378;-1.342;2022-10-16T09:48:44;99834.19;;;20.15;36.36
67803;BME280;54601;51.378;-1.342;2022-10-16T09:51:16;99831.40;;;20.10;36.43
67803;BME280;54601;51.378;-1.342;2022-10-16T09:53:38;99835.54;;;20.35;36.43
67803;BME280;54601;51.378;-1.342;2022-10-16T09:55:56;99838.37;;;20.42;36.32
67803;BME280;54601;51.378;-1.342;2022-10-16T09:58:22;99836.82;;;20.27;36.24
67803;BME280;54601;51.378;-1.342;2022-10-16T10:00:51;99839.03;;;20.56;36.22
67803;BME280;54601;51.378;-1.342;2022-10-16T10:03:15;99838.75;;;20.48;36.03
67803;BME280;54601;51.378;-1.342;2022-10-16T10:05:40;99839.33;;;20.25;35.98
67803;BME280;54601;51.378;-1.342;2022-10-16T10:08:06;99836.11;;;20.68;35.74
67803;BME280;54601;51.378;-1.342;2022-10-16T10:10:34;99836.62;;;20.62;35.84
67803;BME280;54601;51.378;-1.342;2022-10-16T10:12:57;99839.94;;;20.38;35.81
67803;BME280;54601;51.378;-1.342;2022-10-16T10:15:24;99834.54;;;20.75;35.67
67803;BME280;54601;51.378;-1.342;2022-10-16T10:17:51;99831.57;;;20.63;35.87
67803;BME280;54601;51.378;-1.342;2022-10-16T10:20:22;99827.98;;;20.76;35.66
67803;BME280;54601;51.378;-1.342;2022-10-16T10:22:43;99830.54;;;20.74;35.67
67803;BME280;54601;51.378;-1.342;2022-10-16T10:25:14;99831.48;;;20.61;35.84
67803;BME280;54601;51.378;-1.342;2022-10-16T10:27:39;99831.36;;;20.66;35.40
67803;BME280;54601;51.378;-1.342;2022-10-16T10:30:02;99826.49;;;20.58;35.53
67803;BME280;54601;51.378;-1.342;2022-10-16T10:32:31;99828.98;;;20.66;35.43
67803;BME280;54601;51.378;-1.342;2022-10-16T10:35:01;99833.78;;;20.64;35.45
67803;BME280;54601;51.378;-1.342;2022-10-16T10:37:31;99833.69;;;20.59;35.57
67803;BME280;54601;51.378;-1.342;2022-10-16T10:39:48;99833.33;;;20.61;35.53
67803;BME280;54601;51.378;-1.342;2022-10-16T10:42:17;99836.79;;;20.76;35.27
67803;BME280;54601;51.378;-1.342;2022-10-16T10:47:06;99836.48;;;20.80;35.32
67803;BME280;54601;51.378;-1.342;2022-10-16T10:49:45;99840.80;;;20.99;35.38
67803;BME280;54601;51.378;-1.342;2022-10-16T10:51:58;99836.46;;;20.94;35.03
67803;BME280;54601;51.378;-1.342;2022-10-16T10:54:25;99834.81;;;20.93;35.10
67803;BME280;54601;51.378;-1.342;2022-10-16T10:56:50;99840.54;;;20.85;35.18
67803;BME280;54601;51.378;-1.342;2022-10-16T11:01:44;99844.73;;;20.75;35.04
67803;BME280;54601;51.378;-1.342;2022-10-16T11:06:32;99844.63;;;21.08;34.80
67803;BME280;54601;51.378;-1.342;2022-10-16T11:08:59;99840.07;;;21.14;34.69
67803;BME280;54601;51.378;-1.342;2022-10-16T11:11:25;99835.62;;;21.13;34.68
67803;BME280;54601;51.378;-1.342;2022-10-16T11:13:54;99837.84;;;21.05;34.60
67803;BME280;54601;51.378;-1.342;2022-10-16T11:16:15;99835.58;;;20.96;34.61
67803;BME280;54601;51.378;-1.342;2022-10-16T11:18:46;99829.16;;;21.07;34.24
67803;BME280;54601;51.378;-1.342;2022-10-16T11:21:08;99829.80;;;21.21;34.49
67803;BME280;54601;51.378;-1.342;2022-10-16T11:23:33;99830.87;;;21.60;34.18
67803;BME280;54601;51.378;-1.342;2022-10-16T11:25:59;99825.64;;;20.74;34.44
67803;BME280;54601;51.378;-1.342;2022-10-16T11:28:27;99827.66;;;21.32;34.44
67803;BME280;54601;51.378;-1.342;2022-10-16T11:30:51;99825.62;;;21.11;34.33
67803;BME280;54601;51.378;-1.342;2022-10-16T11:33:25;99823.18;;;21.04;34.44
67803;BME280;54601;51.378;-1.342;2022-10-16T11:35:44;99828.00;;;21.07;34.38
67803;BME280;54601;51.378;-1.342;2022-10-16T11:38:14;99833.82;;;21.25;34.23
67803;BME280;54601;51.378;-1.342;2022-10-16T11:40:33;99831.38;;;21.35;34.02
67803;BME280;54601;51.378;-1.342;2022-10-16T11:43:04;99830.88;;;20.81;34.08
67803;BME280;54601;51.378;-1.342;2022-10-16T11:45:29;99833.57;;;21.21;34.07
67803;BME280;54601;51.378;-1.342;2022-10-16T11:47:57;99830.93;;;21.35;33.83
67803;BME280;54601;51.378;-1.342;2022-10-16T11:50:22;99838.68;;;21.32;34.15
67803;BME280;54601;51.378;-1.342;2022-10-16T11:52:50;99837.96;;;21.34;34.30
67803;BME280;54601;51.378;-1.342;2022-10-16T11:55:15;99839.63;;;21.35;34.28
67803;BME280;54601;51.378;-1.342;2022-10-16T11:57:39;99834.12;;;21.13;34.14
67803;BME280;54601;51.378;-1.342;2022-10-16T12:00:04;99826.38;;;21.11;34.54
67803;BME280;54601;51.378;-1.342;2022-10-16T12:02:37;99832.38;;;21.33;34.38
67803;BME280;54601;51.378;-1.342;2022-10-16T12:04:59;99829.62;;;20.89;34.55
67803;BME280;54601;51.378;-1.342;2022-10-16T12:07:20;99827.10;;;21.33;34.58
67803;BME280;54601;51.378;-1.342;2022-10-16T12:09:44;99829.83;;;21.26;34.44
67803;BME280;54601;51.378;-1.342;2022-10-16T12:14:38;99829.57;;;21.30;34.53
67803;BME280;54601;51.378;-1.342;2022-10-16T12:17:03;99827.86;;;20.80;34.70
67803;BME280;54601;51.378;-1.342;2022-10-16T12:19:29;99825.70;;;21.29;34.63
67803;BME280;54601;51.378;-1.342;2022-10-16T12:21:57;99822.96;;;21.22;34.76
67803;BME280;54601;51.378;-1.342;2022-10-16T12:24:31;99818.91;;;21.14;34.86
67803;BME280;54601;51.378;-1.342;2022-10-16T12:26:45;99813.59;;;21.17;34.88
67803;BME280;54601;51.378;-1.342;2022-10-16T12:29:21;99806.96;;;21.19;34.81
67803;BME280;54601;51.378;-1.342;2022-10-16T12:31:42;99803.03;;;21.23;34.77
67803;BME280;54601;51.378;-1.342;2022-10-16T12:34:03;99798.30;;;21.12;34.88
67803;BME280;54601;51.378;-1.342;2022-10-16T12:36:32;99801.64;;;21.16;34.86
67803;BME280;54601;51.378;-1.342;2022-10-16T12:39:01;99806.69;;;20.95;34.84
67803;BME280;54601;51.378;-1.342;2022-10-16T12:41:27;99805.75;;;20.90;34.92
67803;BME280;54601;51.378;-1.342;2022-10-16T12:43:47;99809.34;;;21.17;34.86
67803;BME280;54601;51.378;-1.342;2022-10-16T12:46:21;99809.14;;;21.06;35.00
67803;BME280;54601;51.378;-1.342;2022-10-16T12:48:42;99798.37;;;21.05;35.00
67803;BME280;54601;51.378;-1.342;2022-10-16T12:51:10;99792.84;;;21.04;35.00
67803;BME280;54601;51.378;-1.342;2022-10-16T12:53:36;99790.39;;;21.12;34.87